Time;durP1;ratioP1;P1;durP2;ratioP2;P2;SDS_P1;SDS_P2;PMS_P1;PMS_P2;Temp;Humidity;BMP_temperature;BMP_pressure;BME280_temperature;BME280_humidity;BME280_pressure;Samples;Min_cycle;Max_cycle;Signal;HPM_P1;HPM_P2
2023/01/20 00:01:26;;;;;;;0.40;0.40;;;;;;;17.43;49.48;98383.69;5071477;28;20253;-68
2023/01/20 00:03:54;;;;;;;0.50;0.50;;;;;;;17.37;48.57;98353.06;5071282;28;20924;-68
2023/01/20 00:06:22;;;;;;;0.40;0.40;;;;;;;17.32;50.50;98391.41;5071700;28;20207;-69
2023/01/20 00:08:51;;;;;;;0.50;0.50;;;;;;;17.30;47.25;98404.50;5070826;28;20265;-68
2023/01/20 00:11:18;;;;;;;0.50;0.50;;;;;;;17.59;43.81;98347.97;5071339;28;20253;-68
2023/01/20 00:13:45;;;;;;;1.43;1.33;;;;;;;17.72;43.23;98322.75;5071378;28;20195;-68
2023/01/20 00:16:13;;;;;;;0.50;0.50;;;;;;;17.92;43.87;98367.09;5071102;28;20668;-68
2023/01/20 00:18:41;;;;;;;0.60;0.60;;;;;;;17.95;44.23;98317.56;5070609;28;20211;-69
2023/01/20 00:21:09;;;;;;;0.40;0.40;;;;;;;17.71;43.58;98258.91;5071493;28;20207;-68
2023/01/20 00:23:37;;;;;;;0.50;0.50;;;;;;;17.90;45.41;98327.50;5071050;28;20203;-69
2023/01/20 00:26:05;;;;;;;0.60;0.60;;;;;;;17.84;45.54;98384.03;5070922;28;20223;-68
2023/01/20 00:28:32;;;;;;;0.47;0.47;;;;;;;17.73;46.10;98380.63;5066820;28;20222;-68
2023/01/20 00:30:59;;;;;;;0.40;0.40;;;;;;;17.69;46.33;98374.00;5070013;28;20692;-67
2023/01/20 00:33:27;;;;;;;0.43;0.43;;;;;;;17.68;46.04;98414.66;5071171;28;20207;-69
2023/01/20 00:35:54;;;;;;;0.50;0.50;;;;;;;17.77;45.71;98371.69;5069354;28;20196;-68
2023/01/20 00:38:21;;;;;;;0.60;0.60;;;;;;;17.74;45.56;98377.91;5070518;28;20840;-69
2023/01/20 00:40:54;;;;;;;0.50;0.50;;;;;;;17.69;46.96;98338.56;5070643;28;20196;-69
2023/01/20 00:43:21;;;;;;;0.50;0.50;;;;;;;17.53;47.76;98369.13;5069859;28;20295;-68
2023/01/20 00:45:48;;;;;;;0.50;0.50;;;;;;;17.46;48.89;98393.84;5070424;28;20258;-68
2023/01/20 00:48:15;;;;;;;0.53;0.53;;;;;;;17.41;48.73;98364.03;5070094;28;20208;-68
2023/01/20 00:50:43;;;;;;;0.50;0.50;;;;;;;17.39;46.35;98343.41;5070213;28;20200;-68
2023/01/20 00:53:10;;;;;;;0.43;0.43;;;;;;;17.51;46.60;98341.69;5070453;28;20196;-68
2023/01/20 00:55:37;;;;;;;0.70;0.70;;;;;;;17.62;45.99;98404.75;5070205;28;20253;-68
2023/01/20 00:58:04;;;;;;;0.50;0.50;;;;;;;17.61;45.79;98382.34;5069856;28;20298;-68
2023/01/20 01:00:31;;;;;;;0.50;0.50;;;;;;;17.55;47.16;98419.09;5070314;28;20291;-69
2023/01/20 01:02:58;;;;;;;0.40;0.40;;;;;;;17.48;48.49;98417.06;5070262;28;20192;-68
2023/01/20 01:05:25;;;;;;;0.43;0.43;;;;;;;17.39;49.08;98397.81;5069397;28;20214;-68
2023/01/20 01:07:53;;;;;;;0.60;0.60;;;;;;;17.35;49.92;98427.47;5067937;28;20196;-68
2023/01/20 01:10:20;;;;;;;0.50;0.50;;;;;;;17.27;49.95;98414.25;5070062;28;20227;-68
2023/01/20 01:12:46;;;;;;;0.43;0.43;;;;;;;17.31;48.11;98400.97;5069426;28;20250;-68
2023/01/20 01:15:14;;;;;;;0.50;0.50;;;;;;;17.25;49.13;98405.78;5070083;28;20207;-68
2023/01/20 01:17:42;;;;;;;0.50;0.50;;;;;;;17.34;48.08;98415.47;5070260;28;20202;-68
2023/01/20 01:20:11;;;;;;;0.50;0.50;;;;;;;17.36;48.89;98429.13;5070161;28;20204;-68
2023/01/20 01:22:37;;;;;;;0.50;0.50;;;;;;;17.33;48.56;98413.81;5070340;28;20193;-68
2023/01/20 01:25:07;;;;;;;0.50;0.50;;;;;;;17.27;49.76;98420.25;5070312;28;20200;-68
2023/01/20 01:27:33;;;;;;;0.50;0.50;;;;;;;17.25;49.18;98432.47;5068290;28;20204;-68
2023/01/20 01:30:00;;;;;;;0.50;0.50;;;;;;;17.39;47.86;98457.38;5069453;28;20224;-68
2023/01/20 01:32:27;;;;;;;0.50;0.50;;;;;;;17.48;48.17;98476.66;5069994;28;20203;-68
2023/01/20 01:34:54;;;;;;;0.50;0.50;;;;;;;17.50;48.25;98475.59;5070310;28;20196;-68
2023/01/20 01:37:21;;;;;;;0.40;0.40;;;;;;;17.50;49.74;98513.63;5069956;28;20206;-68
2023/01/20 01:39:48;;;;;;;0.57;0.57;;;;;;;17.33;51.74;98533.81;5070101;28;20286;-68
2023/01/20 01:42:19;;;;;;;0.60;0.60;;;;;;;16.91;57.63;98565.28;5069958;28;20688;-68
2023/01/20 01:45:19;;;;;;;0.50;0.50;;;;;;;16.55;60.98;98612.63;5070145;28;20294;-68
2023/01/20 01:47:49;;;;;;;0.40;0.40;;;;;;;16.22;63.44;98589.78;5069696;28;20294;-68
2023/01/20 01:50:19;;;;;;;0.60;0.60;;;;;;;16.06;64.67;98583.97;5069884;28;20218;-68
2023/01/20 01:52:50;;;;;;;0.60;0.60;;;;;;;16.13;64.19;98585.22;5070280;28;20199;-68
2023/01/20 01:55:19;;;;;;;0.40;0.40;;;;;;;15.96;65.34;98566.59;5070294;28;20322;-68
2023/01/20 01:57:48;;;;;;;0.40;0.40;;;;;;;15.75;68.98;98584.28;5069722;28;20211;-68
2023/01/20 02:00:16;;;;;;;0.40;0.40;;;;;;;15.63;69.41;98562.66;5069371;28;20263;-63
2023/01/20 02:02:44;;;;;;;0.60;0.60;;;;;;;15.41;71.71;98554.56;5069245;28;20199;-64
2023/01/20 02:05:13;;;;;;;0.40;0.40;;;;;;;15.21;73.63;98527.44;5070042;28;20207;-63
2023/01/20 02:07:40;;;;;;;0.50;0.50;;;;;;;14.88;75.96;98515.78;5071989;28;20195;-63
2023/01/20 02:10:08;;;;;;;0.47;0.47;;;;;;;14.91;76.44;98497.53;5073739;28;20679;-63
2023/01/20 02:12:34;;;;;;;0.50;0.50;;;;;;;14.63;79.47;98488.91;5073629;28;20199;-63
2023/01/20 02:15:04;;;;;;;0.47;0.47;;;;;;;14.45;80.83;98505.47;5073088;28;20238;-63
2023/01/20 02:17:33;;;;;;;0.50;0.50;;;;;;;14.40;82.81;98489.47;5073132;28;20200;-63
2023/01/20 02:20:25;;;;;;;0.37;0.37;;;;;;;14.19;85.62;98470.91;5073459;28;20196;-63
2023/01/20 02:22:57;;;;;;;0.47;0.47;;;;;;;14.02;87.38;98470.28;5073318;28;20287;-63
2023/01/20 02:26:01;;;;;;;0.57;0.57;;;;;;;13.94;85.91;98480.19;5073637;28;20622;-63
2023/01/20 02:28:51;;;;;;;0.43;0.43;;;;;;;13.83;89.24;98487.72;5062970;28;20624;-63
2023/01/20 02:31:57;;;;;;;0.50;0.50;;;;;;;13.80;91.55;98469.84;5072369;28;20250;-63
2023/01/20 02:34:30;;;;;;;0.57;0.57;;;;;;;13.66;92.29;98462.94;5073174;28;20200;-63
2023/01/20 02:37:00;;;;;;;0.50;0.50;;;;;;;13.51;94.69;98459.47;5072692;28;20196;-63
2023/01/20 02:39:37;;;;;;;0.67;0.67;;;;;;;13.39;95.76;98441.31;5073129;28;20197;-63
2023/01/20 02:42:10;;;;;;;0.40;0.40;;;;;;;13.39;95.68;98449.88;5072932;28;20287;-62
2023/01/20 02:44:41;;;;;;;0.50;0.50;;;;;;;13.28;95.22;98418.75;5072997;28;20199;-62
2023/01/20 02:47:14;;;;;;;0.40;0.40;;;;;;;13.30;95.59;98428.97;5072886;28;20656;-63
2023/01/20 02:49:48;;;;;;;0.50;0.50;;;;;;;13.31;95.25;98426.28;5072915;28;20307;-64
2023/01/20 02:52:19;;;;;;;0.60;0.60;;;;;;;13.24;94.48;98406.16;5071625;28;20275;-63
2023/01/20 02:54:49;;;;;;;0.50;0.50;;;;;;;13.26;94.25;98412.88;5072149;28;20196;-61
2023/01/20 02:57:21;;;;;;;0.40;0.40;;;;;;;13.23;93.19;98405.31;5072564;28;20200;-62
2023/01/20 02:59:55;;;;;;;0.50;0.50;;;;;;;13.15;93.36;98384.31;5072365;28;20220;-63
2023/01/20 03:02:26;;;;;;;0.40;0.40;;;;;;;13.18;93.96;98398.78;5071580;28;20192;-63
2023/01/20 03:05:00;;;;;;;0.60;0.60;;;;;;;13.08;94.41;98404.47;5072479;28;20200;-62
2023/01/20 03:07:29;;;;;;;0.50;0.50;;;;;;;13.08;94.89;98390.72;5071847;28;20278;-63
2023/01/20 03:09:59;;;;;;;0.50;0.50;;;;;;;13.12;94.64;98405.09;5072665;28;20218;-63
2023/01/20 03:12:30;;;;;;;0.40;0.40;;;;;;;13.03;94.85;98405.56;5072619;28;20197;-62
2023/01/20 03:14:57;;;;;;;0.40;0.40;;;;;;;12.94;94.37;98396.63;5072861;28;20566;-63
2023/01/20 03:17:24;;;;;;;0.50;0.50;;;;;;;12.90;95.30;98384.03;5071688;28;20207;-62
2023/01/20 03:19:51;;;;;;;0.40;0.40;;;;;;;12.83;95.90;98408.41;5072547;28;20278;-62
2023/01/20 03:22:19;;;;;;;0.47;0.47;;;;;;;12.85;96.30;98401.47;5071947;28;20196;-62
2023/01/20 03:24:48;;;;;;;0.50;0.50;;;;;;;12.78;96.96;98379.56;5072672;28;20372;-63
2023/01/20 03:27:15;;;;;;;0.30;0.30;;;;;;;12.69;98.33;98380.06;5072425;28;20258;-63
2023/01/20 03:29:42;;;;;;;0.50;0.50;;;;;;;12.73;97.90;98382.38;5071531;28;20685;-62
2023/01/20 03:32:11;;;;;;;0.50;0.50;;;;;;;12.79;97.56;98399.25;5072178;28;20192;-62
2023/01/20 03:34:41;;;;;;;0.40;0.40;;;;;;;12.87;96.88;98397.88;5071590;28;20200;-62
2023/01/20 03:37:09;;;;;;;0.57;0.57;;;;;;;12.77;96.41;98403.63;5072120;28;20200;-63
2023/01/20 03:39:39;;;;;;;0.60;0.60;;;;;;;12.75;96.60;98420.88;5071625;28;20196;-62
2023/01/20 03:42:10;;;;;;;0.50;0.50;;;;;;;12.77;97.43;98439.63;5071617;28;20193;-63
2023/01/20 03:44:54;;;;;;;0.70;0.70;;;;;;;12.56;98.18;98411.59;5071163;28;20321;-62
2023/01/20 03:47:30;;;;;;;0.60;0.60;;;;;;;12.49;98.34;98409.44;5071929;28;20576;-62
2023/01/20 03:50:09;;;;;;;0.40;0.40;;;;;;;12.42;98.09;98414.06;5071361;28;20211;-62
2023/01/20 03:52:42;;;;;;;0.40;0.40;;;;;;;12.48;98.32;98413.75;5071738;28;20207;-62
2023/01/20 03:55:15;;;;;;;0.50;0.50;;;;;;;12.43;98.61;98391.78;5071972;28;20639;-62
2023/01/20 03:57:48;;;;;;;0.60;0.60;;;;;;;12.39;98.80;98382.56;5071505;28;20583;-63
2023/01/20 04:00:18;;;;;;;0.50;0.50;;;;;;;12.43;98.56;98392.59;5071386;28;20588;-63
2023/01/20 04:02:45;;;;;;;0.43;0.43;;;;;;;12.34;98.77;98385.38;5071342;28;20214;-62
2023/01/20 04:05:13;;;;;;;0.30;0.30;;;;;;;12.47;98.48;98391.50;5071482;28;20192;-63
2023/01/20 04:07:41;;;;;;;0.40;0.40;;;;;;;12.60;97.86;98397.66;5070687;28;20196;-62
2023/01/20 04:10:15;;;;;;;0.33;0.33;;;;;;;12.52;97.94;98393.84;5071391;28;20219;-62
2023/01/20 04:12:42;;;;;;;0.60;0.60;;;;;;;12.42;98.89;98403.78;5071259;28;20200;-63
2023/01/20 04:15:10;;;;;;;0.50;0.50;;;;;;;12.16;99.86;98382.94;5071092;28;20199;-62
2023/01/20 04:17:36;;;;;;;0.50;0.50;;;;;;;12.10;100.00;98378.97;5071075;28;20215;-62
2023/01/20 04:20:07;;;;;;;0.40;0.40;;;;;;;12.00;100.00;98357.25;5071144;28;20189;-62
2023/01/20 04:22:39;;;;;;;0.57;0.57;;;;;;;11.93;100.00;98359.28;5070923;28;20234;-62
2023/01/20 04:25:13;;;;;;;0.50;0.50;;;;;;;12.01;100.00;98353.78;5070513;28;20647;-62
2023/01/20 04:27:42;;;;;;;0.60;0.60;;;;;;;12.10;100.00;98359.25;5068198;28;20207;-63
2023/01/20 04:30:10;;;;;;;0.50;0.50;;;;;;;12.17;100.00;98377.75;5069886;28;20238;-62
2023/01/20 04:32:38;;;;;;;0.40;0.40;;;;;;;12.29;100.00;98356.53;5070752;28;20200;-62
2023/01/20 04:35:06;;;;;;;0.50;0.50;;;;;;;12.37;99.94;98344.09;5070450;28;20202;-62
2023/01/20 04:37:33;;;;;;;0.50;0.50;;;;;;;12.28;100.00;98349.72;5070806;28;20200;-63
2023/01/20 04:40:00;;;;;;;0.83;0.83;;;;;;;12.38;99.33;98356.03;5069948;28;20192;-62
2023/01/20 04:42:27;;;;;;;0.40;0.40;;;;;;;12.47;98.33;98365.81;5070781;28;20208;-62
2023/01/20 04:44:55;;;;;;;0.57;0.57;;;;;;;12.50;98.39;98341.69;5070810;28;20196;-63
2023/01/20 04:47:21;;;;;;;0.40;0.40;;;;;;;12.42;97.76;98342.09;5070545;28;20208;-62
2023/01/20 04:49:48;;;;;;;0.50;0.50;;;;;;;12.47;97.71;98357.28;5071171;28;20239;-63
2023/01/20 04:52:16;;;;;;;0.50;0.50;;;;;;;12.56;97.29;98349.91;5069957;28;20200;-63
2023/01/20 04:54:46;;;;;;;0.50;0.50;;;;;;;12.65;96.29;98343.41;5070449;28;20695;-62
2023/01/20 04:57:13;;;;;;;0.50;0.50;;;;;;;12.64;95.49;98332.28;5070402;28;20215;-63
2023/01/20 04:59:39;;;;;;;0.50;0.50;;;;;;;12.48;95.30;98328.09;5070212;28;20326;-62
2023/01/20 05:02:08;;;;;;;0.50;0.50;;;;;;;12.52;94.10;98321.88;5068914;28;20199;-63
2023/01/20 05:04:36;;;;;;;0.40;0.40;;;;;;;12.43;93.97;98307.78;5070374;28;20196;-62
2023/01/20 05:07:03;;;;;;;0.50;0.50;;;;;;;12.43;93.84;98297.50;5070539;28;20196;-62
2023/01/20 05:09:30;;;;;;;0.50;0.50;;;;;;;12.50;93.60;98298.81;5070062;28;20216;-62
2023/01/20 05:11:57;;;;;;;0.50;0.50;;;;;;;12.48;93.14;98290.34;5070688;28;20192;-62
2023/01/20 05:14:23;;;;;;;0.50;0.50;;;;;;;12.36;93.64;98285.91;5070008;28;20208;-63
2023/01/20 05:16:50;;;;;;;0.50;0.50;;;;;;;12.52;93.46;98284.16;5065540;28;20258;-62
2023/01/20 05:19:19;;;;;;;0.50;0.50;;;;;;;12.61;92.80;98283.63;5069853;28;20203;-63
2023/01/20 05:21:45;;;;;;;0.50;0.50;;;;;;;12.70;91.99;98284.03;5067293;28;20208;-63
2023/01/20 05:24:12;;;;;;;0.60;0.60;;;;;;;12.67;91.66;98273.91;5057117;28;20584;-63
2023/01/20 05:26:39;;;;;;;0.40;0.40;;;;;;;12.55;92.35;98263.41;5058034;28;20207;-62
2023/01/20 05:29:06;;;;;;;0.50;0.50;;;;;;;12.52;92.28;98261.00;5068408;28;20254;-63
2023/01/20 05:31:33;;;;;;;0.60;0.60;;;;;;;12.58;92.08;98276.09;5069232;28;20315;-62
2023/01/20 05:34:00;;;;;;;0.30;0.30;;;;;;;12.47;92.25;98280.97;5069614;28;20691;-62
2023/01/20 05:36:28;;;;;;;0.50;0.50;;;;;;;12.46;92.07;98276.78;5069880;28;20245;-62
2023/01/20 05:38:55;;;;;;;0.50;0.50;;;;;;;12.44;92.13;98273.44;5069995;28;20192;-62
2023/01/20 05:41:21;;;;;;;0.50;0.50;;;;;;;12.52;92.85;98289.28;5070850;28;20196;-62
2023/01/20 05:43:48;;;;;;;0.57;0.57;;;;;;;12.43;93.29;98276.94;5073820;28;20246;-62
2023/01/20 05:46:15;;;;;;;0.57;0.57;;;;;;;12.45;93.17;98269.13;5075018;28;20261;-67
2023/01/20 05:48:42;;;;;;;0.40;0.40;;;;;;;12.43;93.24;98261.53;5073851;28;20663;-67
2023/01/20 05:51:08;;;;;;;0.50;0.50;;;;;;;12.42;92.53;98259.88;5074461;28;20212;-68
2023/01/20 05:53:37;;;;;;;0.50;0.50;;;;;;;12.51;92.75;98279.91;5073716;28;20207;-67
2023/01/20 05:56:05;;;;;;;0.73;0.73;;;;;;;12.40;93.06;98260.88;5073856;28;20200;-68
2023/01/20 05:58:33;;;;;;;0.60;0.60;;;;;;;12.32;93.81;98274.13;5073844;28;20200;-68
2023/01/20 06:01:05;;;;;;;0.57;0.57;;;;;;;12.19;95.04;98273.16;5073646;28;20573;-68
2023/01/20 06:03:31;;;;;;;0.40;0.40;;;;;;;12.17;95.62;98285.25;5073277;28;20268;-68
2023/01/20 06:06:00;;;;;;;0.50;0.50;;;;;;;12.15;95.53;98270.84;5073515;28;20556;-68
2023/01/20 06:08:27;;;;;;;0.47;0.47;;;;;;;12.10;95.99;98253.09;5073898;28;20200;-68
2023/01/20 06:10:55;;;;;;;0.70;0.70;;;;;;;12.10;95.61;98250.53;5073342;28;20215;-68
2023/01/20 06:13:22;;;;;;;0.50;0.50;;;;;;;12.10;95.98;98242.81;5074020;28;20301;-67
2023/01/20 06:15:52;;;;;;;0.40;0.40;;;;;;;12.17;95.43;98226.16;5073757;28;20293;-67
2023/01/20 06:18:19;;;;;;;0.40;0.40;;;;;;;12.22;95.11;98226.72;5073098;28;20204;-68
2023/01/20 06:20:45;;;;;;;0.50;0.50;;;;;;;12.29;94.06;98216.94;5073278;28;20670;-68
2023/01/20 06:23:12;;;;;;;0.50;0.50;;;;;;;12.03;94.42;98208.09;5070751;28;20204;-67
2023/01/20 06:25:40;;;;;;;0.83;0.83;;;;;;;11.88;94.47;98185.84;5073671;28;20606;-67
2023/01/20 06:28:09;;;;;;;0.63;0.63;;;;;;;11.85;95.59;98203.97;5071950;28;20188;-67
2023/01/20 06:30:36;;;;;;;0.60;0.60;;;;;;;11.87;95.88;98191.88;5072937;28;20687;-67
2023/01/20 06:33:09;;;;;;;0.60;0.60;;;;;;;11.98;95.62;98210.09;5072488;28;20203;-67
2023/01/20 06:35:36;;;;;;;0.40;0.40;;;;;;;11.99;95.96;98201.47;5066040;28;20208;-67
2023/01/20 06:38:03;;;;;;;0.50;0.50;;;;;;;12.03;96.37;98206.38;5063054;28;20216;-66
2023/01/20 06:40:29;;;;;;;0.70;0.70;;;;;;;12.07;97.22;98225.00;5062976;28;20208;-68
2023/01/20 06:42:57;;;;;;;0.43;0.43;;;;;;;12.12;97.36;98204.22;5065567;28;20196;-67
2023/01/20 06:45:26;;;;;;;0.60;0.60;;;;;;;12.24;98.07;98226.66;5069339;28;20291;-66
2023/01/20 06:47:52;;;;;;;0.60;0.60;;;;;;;12.34;98.39;98233.75;5072250;28;20200;-66
2023/01/20 06:50:19;;;;;;;0.40;0.40;;;;;;;12.39;98.77;98229.19;5072104;28;20219;-67
2023/01/20 06:52:46;;;;;;;0.50;0.50;;;;;;;12.51;99.16;98233.63;5072403;28;20672;-67
2023/01/20 06:55:13;;;;;;;0.73;0.73;;;;;;;12.61;98.44;98219.34;5072879;28;20227;-66
2023/01/20 06:57:39;;;;;;;0.30;0.30;;;;;;;12.72;96.30;98215.34;5072739;28;20595;-62
2023/01/20 07:00:08;;;;;;;0.50;0.50;;;;;;;12.82;95.61;98211.31;5071256;28;20262;-63
2023/01/20 07:02:36;;;;;;;0.60;0.60;;;;;;;12.82;96.17;98216.47;5070303;28;20270;-63
2023/01/20 07:05:06;;;;;;;0.60;0.60;;;;;;;12.80;97.42;98215.72;5067693;28;20212;-63
2023/01/20 07:07:33;;;;;;;0.60;0.60;;;;;;;12.80;95.60;98223.44;5070891;28;20192;-63
2023/01/20 07:10:00;;;;;;;0.53;0.53;;;;;;;12.81;95.00;98223.34;5069885;28;20228;-62
2023/01/20 07:12:27;;;;;;;0.50;0.50;;;;;;;12.79;94.86;98232.06;5069771;28;20207;-62
2023/01/20 07:14:54;;;;;;;0.50;0.50;;;;;;;12.81;92.24;98215.63;5070604;28;20200;-62
2023/01/20 07:17:20;;;;;;;1.00;1.00;;;;;;;12.85;91.47;98206.84;5068231;28;20362;-61
2023/01/20 07:19:48;;;;;;;0.40;0.40;;;;;;;12.89;91.37;98215.22;5067207;28;20254;-64
2023/01/20 07:22:15;;;;;;;0.43;0.43;;;;;;;12.92;91.07;98225.31;5069716;28;20204;-62
2023/01/20 07:24:42;;;;;;;0.40;0.40;;;;;;;12.99;91.56;98224.00;5070495;28;20257;-63
2023/01/20 07:27:09;;;;;;;0.40;0.40;;;;;;;13.07;91.67;98247.56;5070899;28;20211;-63
2023/01/20 07:29:36;;;;;;;0.40;0.40;;;;;;;13.17;91.89;98238.41;5069118;28;20580;-63
2023/01/20 07:32:03;;;;;;;0.60;0.60;;;;;;;13.06;91.23;98225.31;5069948;28;20208;-64
2023/01/20 07:34:30;;;;;;;0.63;0.63;;;;;;;13.19;90.76;98252.00;5069869;28;20200;-64
2023/01/20 07:37:00;;;;;;;0.40;0.40;;;;;;;13.24;90.32;98255.16;5068164;28;20204;-64
2023/01/20 07:39:27;;;;;;;0.60;0.60;;;;;;;13.22;90.02;98249.25;5068867;28;20204;-64
2023/01/20 07:41:53;;;;;;;0.57;0.57;;;;;;;13.17;89.76;98248.72;5069207;28;20298;-64
2023/01/20 07:44:20;;;;;;;0.47;0.47;;;;;;;13.23;90.46;98253.50;5071234;28;20200;-64
2023/01/20 07:46:47;;;;;;;0.57;0.57;;;;;;;13.19;90.48;98252.00;5070156;28;20196;-64
2023/01/20 07:49:14;;;;;;;0.67;0.67;;;;;;;13.13;91.61;98242.09;5070600;28;20204;-64
2023/01/20 07:51:42;;;;;;;0.50;0.50;;;;;;;12.99;92.91;98253.13;5070477;28;20216;-64
2023/01/20 07:54:11;;;;;;;0.50;0.50;;;;;;;12.77;95.68;98269.91;5070506;28;20200;-64
2023/01/20 07:56:38;;;;;;;0.40;0.40;;;;;;;12.61;99.79;98300.78;5069382;28;20207;-64
2023/01/20 07:59:05;;;;;;;0.50;0.50;;;;;;;12.26;100.00;98361.00;5070586;28;20770;-65
2023/01/20 08:01:32;;;;;;;0.50;0.50;;;;;;;11.77;100.00;98367.88;5069741;28;20207;-65
2023/01/20 08:04:00;;;;;;;1.27;1.27;;;;;;;11.64;100.00;98418.13;5067729;28;20641;-65
2023/01/20 08:06:27;;;;;;;1.07;1.07;;;;;;;11.45;100.00;98419.06;5069312;28;20199;-64
2023/01/20 08:08:55;;;;;;;0.40;0.40;;;;;;;11.28;100.00;98446.44;5069780;28;20207;-63
2023/01/20 08:11:23;;;;;;;0.50;0.50;;;;;;;11.21;100.00;98445.88;5069728;28;20223;-62
2023/01/20 08:13:50;;;;;;;0.40;0.40;;;;;;;11.05;100.00;98450.09;5064574;28;20204;-64
2023/01/20 08:16:18;;;;;;;0.40;0.40;;;;;;;10.88;100.00;98442.38;5068759;28;20237;-64
2023/01/20 08:18:46;;;;;;;0.40;0.40;;;;;;;10.87;100.00;98461.22;5069535;28;20204;-64
2023/01/20 08:21:21;;;;;;;4.70;1.00;;;;;;;10.84;100.00;98472.44;5070328;28;20676;-63
2023/01/20 08:23:48;;;;;;;0.50;0.50;;;;;;;10.84;100.00;98462.19;5069275;28;20614;-63
2023/01/20 08:26:15;;;;;;;0.47;0.47;;;;;;;10.86;100.00;98456.97;5070655;28;20250;-63
2023/01/20 08:28:44;;;;;;;0.50;0.50;;;;;;;10.91;100.00;98453.31;5067566;28;20200;-63
2023/01/20 08:31:12;;;;;;;0.40;0.40;;;;;;;11.03;100.00;98449.34;5069132;28;20289;-63
2023/01/20 08:33:41;;;;;;;0.50;0.50;;;;;;;11.06;100.00;98446.63;5071189;28;20211;-63
2023/01/20 08:36:11;;;;;;;0.50;0.50;;;;;;;11.06;100.00;98415.84;5068793;28;20196;-63
2023/01/20 08:38:38;;;;;;;0.47;0.47;;;;;;;11.11;100.00;98413.91;5067986;28;20283;-63
2023/01/20 08:41:07;;;;;;;0.90;0.90;;;;;;;11.29;100.00;98418.16;5065642;28;20204;-63
2023/01/20 08:43:35;;;;;;;0.50;0.50;;;;;;;11.43;100.00;98418.31;5068311;28;20635;-62
2023/01/20 08:46:06;;;;;;;1.50;1.50;;;;;;;11.42;100.00;98414.09;5068437;28;20207;-63
2023/01/20 08:48:33;;;;;;;6.33;2.17;;;;;;;11.57;100.00;98431.28;5067096;28;20207;-63
2023/01/20 08:51:00;;;;;;;0.70;0.70;;;;;;;11.67;100.00;98434.22;5068604;28;20216;-63
2023/01/20 08:53:26;;;;;;;0.50;0.50;;;;;;;11.81;100.00;98451.53;5068288;28;20212;-62
2023/01/20 08:55:57;;;;;;;0.83;0.83;;;;;;;11.87;100.00;98446.09;5068390;28;20192;-63
2023/01/20 08:58:25;;;;;;;0.80;0.80;;;;;;;11.91;100.00;98427.06;5066602;28;20196;-62
2023/01/20 09:00:52;;;;;;;0.80;0.80;;;;;;;11.92;100.00;98393.59;5066576;28;20208;-63
2023/01/20 09:03:20;;;;;;;0.83;0.83;;;;;;;11.99;100.00;98360.72;5069695;28;20584;-63
2023/01/20 09:05:47;;;;;;;0.40;0.40;;;;;;;11.92;100.00;98341.41;5069677;28;20692;-63
2023/01/20 09:08:14;;;;;;;0.50;0.50;;;;;;;11.88;100.00;98309.09;5068939;28;20211;-63
2023/01/20 09:10:41;;;;;;;0.53;0.53;;;;;;;12.04;100.00;98304.81;5065513;28;20226;-62
2023/01/20 09:13:08;;;;;;;1.43;1.43;;;;;;;12.08;100.00;98301.16;5068187;28;20200;-63
2023/01/20 09:15:34;;;;;;;0.50;0.50;;;;;;;12.05;100.00;98296.19;5066813;28;20212;-63
2023/01/20 09:18:01;;;;;;;1.30;0.60;;;;;;;11.96;100.00;98283.81;5068552;28;20656;-62
2023/01/20 09:20:29;;;;;;;0.97;0.97;;;;;;;11.84;100.00;98251.94;5070219;28;20203;-62
2023/01/20 09:22:56;;;;;;;0.67;0.67;;;;;;;11.82;100.00;98222.97;5070291;28;20207;-63
2023/01/20 09:25:23;;;;;;;1.03;1.03;;;;;;;11.69;100.00;98231.34;5068141;28;20200;-63
2023/01/20 09:27:50;;;;;;;0.87;0.87;;;;;;;11.69;100.00;98226.22;5070560;28;20196;-62
2023/01/20 09:30:17;;;;;;;0.30;0.30;;;;;;;11.65;100.00;98229.84;5070568;28;20223;-62
2023/01/20 09:32:44;;;;;;;0.40;0.40;;;;;;;11.64;100.00;98225.63;5069376;28;20556;-62
2023/01/20 09:35:11;;;;;;;0.50;0.50;;;;;;;11.83;100.00;98234.03;5068923;28;20200;-62
2023/01/20 09:46:14;;;;;;;0.40;0.40;;;;;;;13.01;100.00;98166.44;5066335;28;20281;-63
2023/01/20 09:54:32;;;;;;;0.50;0.50;;;;;;;13.99;93.85;98161.25;5068444;28;20698;-63
2023/01/20 09:57:01;;;;;;;0.40;0.40;;;;;;;14.04;96.30;98159.22;5065691;28;20234;-63
2023/01/20 09:59:37;;;;;;;0.57;0.57;;;;;;;14.01;96.36;98151.69;5067739;28;20665;-63
2023/01/20 10:02:13;;;;;;;0.47;0.47;;;;;;;14.03;96.34;98180.72;5066921;28;20736;-63
2023/01/20 10:04:45;;;;;;;0.57;0.57;;;;;;;14.02;97.39;98171.38;5067824;28;20583;-63
2023/01/20 10:07:18;;;;;;;0.50;0.50;;;;;;;14.07;100.00;98154.69;5064458;28;20200;-63
2023/01/20 10:09:53;;;;;;;0.50;0.50;;;;;;;14.04;100.00;98164.34;5062711;28;20669;-63
2023/01/20 10:12:25;;;;;;;0.43;0.43;;;;;;;14.08;100.00;98151.19;5062997;28;20215;-63
2023/01/20 10:15:00;;;;;;;0.73;0.73;;;;;;;13.97;100.00;98132.19;5063988;28;20204;-62
2023/01/20 10:17:33;;;;;;;0.50;0.50;;;;;;;13.73;100.00;98138.91;5065039;28;20668;-63
2023/01/20 10:20:05;;;;;;;1.40;1.40;;;;;;;13.44;100.00;98135.56;5066228;28;20588;-63
2023/01/20 10:22:37;;;;;;;0.40;0.40;;;;;;;13.26;100.00;98123.81;5068053;28;20262;-63
2023/01/20 10:25:12;;;;;;;0.70;0.70;;;;;;;13.16;100.00;98123.53;5068994;28;20201;-63
2023/01/20 10:27:45;;;;;;;0.50;0.50;;;;;;;13.03;100.00;98109.72;5068053;28;20633;-63
2023/01/20 10:30:15;;;;;;;0.40;0.40;;;;;;;12.98;100.00;98104.88;5071432;28;20227;-63
2023/01/20 10:32:49;;;;;;;0.47;0.47;;;;;;;12.96;100.00;98109.28;5070584;28;20397;-63
2023/01/20 10:35:19;;;;;;;0.60;0.60;;;;;;;13.20;100.00;98125.00;5070486;28;20204;-63
2023/01/20 10:37:46;;;;;;;0.50;0.50;;;;;;;13.37;100.00;98129.97;5072191;28;20596;-63
2023/01/20 10:40:31;;;;;;;0.50;0.50;;;;;;;13.54;100.00;98127.16;5070379;28;20965;-62
2023/01/20 10:43:01;;;;;;;0.50;0.50;;;;;;;13.73;100.00;98138.91;5071637;28;20670;-62
2023/01/20 10:45:38;;;;;;;0.60;0.60;;;;;;;13.90;100.00;98136.06;5070551;28;20711;-63
2023/01/20 10:48:20;;;;;;;0.97;0.97;;;;;;;13.82;100.00;98117.69;5065031;28;20209;-62
2023/01/20 10:50:55;;;;;;;0.53;0.53;;;;;;;13.81;100.00;98113.47;5068658;28;20201;-62
2023/01/20 10:53:35;;;;;;;0.50;0.50;;;;;;;13.62;100.00;98112.06;5070379;28;20216;-63
2023/01/20 10:56:19;;;;;;;0.83;0.83;;;;;;;13.71;100.00;98102.94;5070509;28;20200;-63
2023/01/20 10:58:46;;;;;;;0.50;0.50;;;;;;;13.71;100.00;98107.25;5069853;28;20200;-62
2023/01/20 11:01:17;;;;;;;0.60;0.60;;;;;;;13.63;100.00;98103.41;5072546;28;20224;-62
2023/01/20 11:03:46;;;;;;;0.40;0.40;;;;;;;13.61;100.00;98105.25;5069380;28;20294;-63
2023/01/20 11:06:19;;;;;;;0.40;0.40;;;;;;;13.67;100.00;98094.56;5067698;28;20732;-63
2023/01/20 11:08:46;;;;;;;0.50;0.50;;;;;;;13.68;100.00;98101.38;5068230;28;20200;-63
2023/01/20 11:11:17;;;;;;;0.47;0.47;;;;;;;13.77;100.00;98106.84;5068350;28;20231;-63
2023/01/20 11:13:44;;;;;;;0.40;0.40;;;;;;;13.71;99.62;98099.53;5068661;28;20462;-62
2023/01/20 11:16:17;;;;;;;0.47;0.47;;;;;;;13.78;99.91;98080.19;5069259;28;20270;-63
2023/01/20 11:18:55;;;;;;;0.40;0.40;;;;;;;13.83;100.00;98073.81;5068997;28;20211;-63
2023/01/20 11:21:24;;;;;;;0.50;0.50;;;;;;;13.92;100.00;98072.41;5069286;28;20208;-64
2023/01/20 11:23:54;;;;;;;0.50;0.50;;;;;;;13.93;98.40;98089.50;5067053;28;20208;-63
2023/01/20 11:26:24;;;;;;;0.53;0.53;;;;;;;13.75;98.76;98088.09;5062751;28;20282;-62
2023/01/20 11:28:54;;;;;;;0.50;0.50;;;;;;;13.65;100.00;98086.13;5069311;28;20211;-62
2023/01/20 11:31:33;;;;;;;0.80;0.80;;;;;;;13.71;100.00;98072.03;5071284;28;20955;-62
2023/01/20 11:34:02;;;;;;;0.40;0.40;;;;;;;13.60;100.00;98077.84;5071033;28;20254;-63
2023/01/20 11:36:29;;;;;;;0.40;0.40;;;;;;;13.53;100.00;98061.16;5070600;28;20192;-62
2023/01/20 11:38:57;;;;;;;0.50;0.50;;;;;;;13.54;100.00;98069.69;5071830;28;20645;-62
2023/01/20 11:41:28;;;;;;;0.70;0.70;;;;;;;13.53;100.00;98056.00;5067814;28;21182;-62
2023/01/20 11:43:56;;;;;;;0.67;0.67;;;;;;;13.57;100.00;98046.34;5071216;28;20214;-62
2023/01/20 11:46:26;;;;;;;0.40;0.40;;;;;;;13.49;100.00;98033.94;5071160;28;20665;-62
2023/01/20 11:49:13;;;;;;;0.50;0.50;;;;;;;13.55;100.00;98038.69;5072460;28;20207;-62
2023/01/20 11:51:46;;;;;;;0.50;0.50;;;;;;;13.53;100.00;98022.53;5066352;28;20212;-62
2023/01/20 11:54:16;;;;;;;3.60;0.93;;;;;;;13.54;100.00;98015.63;5070511;28;20208;-63
2023/01/20 11:56:47;;;;;;;0.53;0.53;;;;;;;13.50;100.00;98015.00;5062316;28;20684;-63